Flight Track Log - Related Links

Times and Time Zones

All times are in EDT time to prevent confusion due to time zone crossing. See the LOF3416 flight status page for this flight to view local times or setup timezone preferences in your user account.

Time Position Orientation Groundspeed Altitude Reporting Facility
EDT Latitude Longitude Course Direction KTS MPH feet Rate Location/Type
Fri 08:05:16 PM 37.3214 -93.2083 34° Northeast 255 293 7,200  Level Kansas City Center
Fri 08:06:17 PM 37.3861 -93.1611 30° Northeast 263 303 9,200 1,984 Climbing Kansas City Center
Fri 08:07:20 PM 37.4589 -93.1325 17° North 268 308 11,300 1,872 Climbing Kansas City Center
Fri 08:08:00 PM 37.7160 -92.9508 38° Northeast  Level FlightAware Approximate
Fri 08:08:22 PM 37.5308 -93.1042 17° North 270 311 13,100  Level Kansas City Center
Fri 08:09:00 PM 37.7937 -92.8731 38° Northeast  Level FlightAware Approximate
Fri 08:09:23 PM 37.6031 -93.0728 19° North 272 313 14,800  Level Kansas City Center
Fri 08:10:26 PM 37.6753 -93.0408 19° North 273 314 16,300 1,306 Climbing Kansas City Center
Fri 08:11:27 PM 37.7406 -92.9881 33° Northeast 279 321 17,500 984 Climbing Kansas City Center
Fri 08:12:28 PM 37.8225 -92.9139 36° Northeast 295 339 18,300 768 Climbing Kansas City Center
Fri 08:13:32 PM 37.8947 -92.8458 37° Northeast 314 361 19,100 774 Climbing Kansas City Center
Fri 08:14:32 PM 37.9694 -92.7758 36° Northeast 327 376 19,900 726 Climbing Kansas City Center
Fri 08:15:36 PM 38.0372 -92.7122 36° Northeast 333 383 20,600 672 Climbing Kansas City Center
Fri 08:16:37 PM 38.1139 -92.6383 37° Northeast 342 394 21,300 774 Climbing Kansas City Center
Fri 08:17:40 PM 38.2031 -92.5542 37° Northeast 349 402 22,200 774 Climbing Kansas City Center
Fri 08:18:41 PM 38.2831 -92.4775 37° Northeast 353 406 22,900 738 Climbing Kansas City Center
Fri 08:19:42 PM 38.3639 -92.4011 37° Northeast 357 411 23,700 689 Climbing Kansas City Center
Fri 08:20:43 PM 38.4439 -92.3236 37° Northeast 358 412 24,300 581 Climbing Kansas City Center
Fri 08:21:46 PM 38.5247 -92.2458 37° Northeast 361 415 24,900 629 Climbing Kansas City Center
Fri 08:22:47 PM 38.6242 -92.1497 37° Northeast 369 425 25,600 677 Climbing Kansas City Center
Fri 08:23:50 PM 38.7061 -92.0708 37° Northeast 368 423 26,300 624 Climbing Kansas City Center
Fri 08:24:52 PM 38.7886 -91.9894 38° Northeast 370 426 26,900 341 Climbing Kansas City Center
Fri 08:25:53 PM 38.8719 -91.9083 37° Northeast 374 430 27,000 49 Climbing Kansas City Center
Fri 08:26:55 PM 38.9600 -91.8236 37° Northeast 387 445 27,000  Level Kansas City Center
Fri 08:27:55 PM 39.0508 -91.7353 37° Northeast 402 463 27,000  Level Kansas City Center
Fri 08:28:59 PM 39.1433 -91.6422 38° Northeast 410 472 27,000  Level Kansas City Center
Fri 08:29:59 PM 39.2367 -91.5511 37° Northeast 416 479 27,000  Level Kansas City Center
Fri 08:31:03 PM 39.3314 -91.4575 37° Northeast 424 488 27,000  Level Kansas City Center
Fri 08:32:04 PM 39.4253 -91.3653 37° Northeast 425 489 27,000  Level Kansas City Center
Fri 08:33:06 PM 39.5378 -91.2528 38° Northeast 424 488 27,000  Level Kansas City Center
Fri 08:34:07 PM 39.6317 -91.1575 38° Northeast 426 490 27,000  Level Kansas City Center
Fri 08:35:08 PM 39.7267 -91.0639 37° Northeast 427 491 27,000  Level Kansas City Center
Fri 08:36:12 PM 39.8278 -90.9614 38° Northeast 427 491 27,000  Level Kansas City Center
Fri 08:37:12 PM 39.9228 -90.8667 37° Northeast 428 493 27,000  Level Kansas City Center
Fri 08:38:13 PM 40.0172 -90.7717 38° Northeast 430 495 27,000  Level Kansas City Center
Fri 08:39:17 PM 40.1108 -90.6747 38° Northeast 429 494 27,000  Level Kansas City Center
Fri 08:40:17 PM 40.2075 -90.5786 37° Northeast 433 498 27,000  Level Kansas City Center
Fri 08:41:18 PM 40.3017 -90.4811 38° Northeast 432 497 27,000  Level Kansas City Center
Fri 08:42:06 PM 40.3783 -90.4033 38° Northeast 433 498 27,000  Level Chicago Center
Fri 08:43:08 PM 40.4731 -90.3056 38° Northeast 434 499 27,000 -387 Level Chicago Center
Fri 08:44:10 PM 40.5850 -90.1850 39° Northeast 431 496 26,200 -871 Descending Chicago Center
Fri 08:45:12 PM 40.6761 -90.0642 45° Northeast 465 535 25,200 -968 Descending Chicago Center
Fri 08:46:14 PM 40.7581 -89.9344 50° Northeast 466 536 24,200 -581 Descending Chicago Center
Fri 08:47:16 PM 40.8372 -89.8047 51° Northeast 445 512 24,000 -532 Descending Chicago Center
Fri 08:48:18 PM 40.9156 -89.6783 51° Northeast 442 509 23,100 -968 Descending Chicago Center
Fri 08:49:20 PM 41.0064 -89.5353 50° Northeast 454 522 22,000 -1,016 Descending Chicago Center
Fri 08:50:22 PM 41.0836 -89.4103 51° Northeast 444 511 21,000 -1,210 Descending Chicago Center
Fri 08:51:24 PM 41.1592 -89.2872 51° Northeast 434 499 19,500 -2,256 Descending Chicago Center
Fri 08:52:27 PM 41.2372 -89.1636 50° Northeast 415 478 16,300 -2,880 Descending Chicago Center
Fri 08:53:29 PM 41.3028 -89.0497 53° Northeast 394 453 13,500 -2,516 Descending Chicago Center
Fri 08:54:31 PM 41.3769 -88.9108 55° Northeast 386 444 11,100 -1,210 Descending Chicago Center
Fri 08:55:33 PM 41.4381 -88.7983 54° Northeast 382 440 11,000 -48 Descending Chicago Center
Fri 08:56:35 PM 41.5003 -88.6817 55° Northeast 387 445 11,000  Level Chicago Center
Fri 08:57:37 PM 41.5614 -88.5675 54° Northeast 380 437 11,000  Level Chicago Center
Fri 08:58:39 PM 41.6236 -88.4503 55° Northeast 390 449 11,000  Level Chicago Center
Fri 08:59:41 PM 41.6872 -88.3344 54° Northeast 388 447 11,000  Level Chicago Center
Fri 09:00:46 PM 41.7639 -88.2003 53° Northeast 378 435 11,000 -472 Level Chicago Center
Fri 09:01:48 PM 41.8183 -88.1078 52° Northeast 322 371 10,000 -1,310 Descending Chicago Center
Fri 09:03:08 PM 41.8833 -87.9667 58° Northeast 316 364 7,900 -1,243 Descending Chicago TRACON
Fri 09:04:08 PM 41.8833 -87.8500 90° East 309 356 7,100 -566 Descending Chicago TRACON
Fri 09:04:54 PM 41.8839 -87.7906 89° East 306 352 6,900 -944 Descending Chicago Center
Fri 09:05:56 PM 41.8842 -87.6558 90° East 300 345 5,400 -919 Descending Chicago Center
Fri 09:06:58 PM 41.8833 -87.5519 91° East 284 327 5,000 -192 Descending Chicago Center
Fri 09:08:01 PM 41.8844 -87.4544 89° East 266 306 5,000  Level Chicago Center
Fri 09:09:03 PM 41.8836 -87.3636 91° East 249 287 5,000  Level Chicago Center
Fri 09:10:05 PM 41.9308 -87.3294 28° Northeast 220 253 5,000  Level Chicago Center
Fri 09:11:07 PM 41.9661 -87.3892 308° West 181 208 5,000  Level Chicago Center
Fri 09:12:09 PM 41.9689 -87.4475 274° West 169 194 5,000  Level Chicago Center
Fri 09:13:11 PM 41.9689 -87.5069 270° West 163 188 5,000  Level Chicago Center
Fri 09:14:13 PM 41.9683 -87.5681 269° West 164 189 5,000 -194 Level Chicago Center
Fri 09:15:15 PM 41.9683 -87.6308 270° West 169 194 4,600 -871 Descending Chicago Center
Fri 09:16:17 PM 41.9692 -87.7064 271° West 171 197 3,200 -1,065 Descending Chicago Center
Fri 09:17:19 PM 41.9692 -87.7639 270° West 162 186 2,400 -823 Descending Chicago Center
Fri 09:18:21 PM 41.9694 -87.8169 270° West 152 175 1,500 -532 Descending Chicago Center
Fri 09:19:23 PM 41.9692 -87.8764 270° West 147 169 1,300 -194 Descending Chicago Center

Login

Don't have an account? Register now (free) for customized features, flight alerts, and more!